sensor_id;sensor_type;location;lat;lon;timestamp;P1;durP1;ratioP1;P2;durP2;ratioP2
85839;SDS011;76322;54.686;9.332;2024-02-23T16:56:34;6.22;;;3.00;;
85839;SDS011;76322;54.686;9.332;2024-02-23T16:57:36;4.90;;;3.00;;
85839;SDS011;76322;54.686;9.332;2024-02-23T16:58:38;5.20;;;2.70;;
85839;SDS011;76322;54.686;9.332;2024-02-23T16:59:39;6.95;;;2.85;;
85839;SDS011;76322;54.686;9.332;2024-02-23T17:00:41;3.92;;;3.17;;
85839;SDS011;76322;54.686;9.332;2024-02-23T17:01:42;4.32;;;2.83;;
85839;SDS011;76322;54.686;9.332;2024-02-23T17:02:45;3.28;;;2.40;;
85839;SDS011;76322;54.686;9.332;2024-02-23T17:03:46;4.63;;;2.50;;
85839;SDS011;76322;54.686;9.332;2024-02-23T17:04:48;3.17;;;2.42;;
85839;SDS011;76322;54.686;9.332;2024-02-23T17:05:49;4.55;;;2.33;;
85839;SDS011;76322;54.686;9.332;2024-02-23T17:06:51;3.13;;;2.22;;
85839;SDS011;76322;54.686;9.332;2024-02-23T17:07:52;4.70;;;2.85;;
85839;SDS011;76322;54.686;9.332;2024-02-23T17:08:54;2.80;;;2.17;;
85839;SDS011;76322;54.686;9.332;2024-02-23T17:09:56;5.10;;;2.53;;
85839;SDS011;76322;54.686;9.332;2024-02-23T17:10:58;3.83;;;2.50;;
85839;SDS011;76322;54.686;9.332;2024-02-23T17:12:00;4.05;;;2.35;;
85839;SDS011;76322;54.686;9.332;2024-02-23T17:13:01;4.90;;;2.30;;
85839;SDS011;76322;54.686;9.332;2024-02-23T17:14:03;3.85;;;2.40;;
85839;SDS011;76322;54.686;9.332;2024-02-23T17:15:05;4.13;;;2.63;;
85839;SDS011;76322;54.686;9.332;2024-02-23T17:16:07;3.53;;;2.13;;
85839;SDS011;76322;54.686;9.332;2024-02-23T17:17:08;3.63;;;2.60;;
85839;SDS011;76322;54.686;9.332;2024-02-23T17:18:10;3.70;;;2.75;;
85839;SDS011;76322;54.686;9.332;2024-02-23T17:19:11;3.60;;;2.33;;
85839;SDS011;76322;54.686;9.332;2024-02-23T17:20:13;4.05;;;2.22;;
85839;SDS011;76322;54.686;9.332;2024-02-23T17:21:15;4.18;;;2.13;;
85839;SDS011;76322;54.686;9.332;2024-02-23T17:22:17;5.45;;;2.50;;
85839;SDS011;76322;54.686;9.332;2024-02-23T17:23:18;4.28;;;2.03;;
85839;SDS011;76322;54.686;9.332;2024-02-23T17:24:20;3.05;;;2.30;;
85839;SDS011;76322;54.686;9.332;2024-02-23T17:25:21;5.53;;;2.70;;
85839;SDS011;76322;54.686;9.332;2024-02-23T17:26:23;5.05;;;2.40;;
85839;SDS011;76322;54.686;9.332;2024-02-23T17:27:24;4.65;;;2.03;;
85839;SDS011;76322;54.686;9.332;2024-02-23T17:28:26;6.28;;;2.20;;
85839;SDS011;76322;54.686;9.332;2024-02-23T17:29:27;4.38;;;2.30;;
85839;SDS011;76322;54.686;9.332;2024-02-23T17:30:29;4.90;;;2.28;;
85839;SDS011;76322;54.686;9.332;2024-02-23T17:31:31;3.20;;;2.30;;
85839;SDS011;76322;54.686;9.332;2024-02-23T17:32:32;5.78;;;2.38;;
85839;SDS011;76322;54.686;9.332;2024-02-23T17:33:34;5.25;;;2.78;;
85839;SDS011;76322;54.686;9.332;2024-02-23T17:34:36;4.07;;;2.22;;
85839;SDS011;76322;54.686;9.332;2024-02-23T17:35:38;3.83;;;2.13;;
85839;SDS011;76322;54.686;9.332;2024-02-23T17:36:40;5.07;;;2.40;;
85839;SDS011;76322;54.686;9.332;2024-02-23T17:37:44;3.95;;;2.22;;
85839;SDS011;76322;54.686;9.332;2024-02-23T17:38:46;4.75;;;2.42;;
85839;SDS011;76322;54.686;9.332;2024-02-23T17:39:47;3.63;;;2.25;;
85839;SDS011;76322;54.686;9.332;2024-02-23T17:40:50;4.57;;;2.10;;
85839;SDS011;76322;54.686;9.332;2024-02-23T17:41:54;4.15;;;2.20;;
85839;SDS011;76322;54.686;9.332;2024-02-23T17:42:56;4.43;;;2.15;;
85839;SDS011;76322;54.686;9.332;2024-02-23T17:43:57;5.50;;;2.50;;
85839;SDS011;76322;54.686;9.332;2024-02-23T17:44:59;5.07;;;2.50;;
85839;SDS011;76322;54.686;9.332;2024-02-23T17:46:00;8.02;;;2.30;;
85839;SDS011;76322;54.686;9.332;2024-02-23T17:47:02;4.28;;;2.10;;
85839;SDS011;76322;54.686;9.332;2024-02-23T17:48:04;3.10;;;2.20;;
85839;SDS011;76322;54.686;9.332;2024-02-23T17:49:06;5.47;;;1.92;;
85839;SDS011;76322;54.686;9.332;2024-02-23T17:50:08;3.00;;;2.33;;
85839;SDS011;76322;54.686;9.332;2024-02-23T17:51:10;3.08;;;2.13;;
85839;SDS011;76322;54.686;9.332;2024-02-23T17:52:12;8.38;;;2.38;;
85839;SDS011;76322;54.686;9.332;2024-02-23T17:53:14;4.25;;;2.15;;
85839;SDS011;76322;54.686;9.332;2024-02-23T17:54:16;4.68;;;2.65;;
85839;SDS011;76322;54.686;9.332;2024-02-23T17:55:17;8.18;;;3.05;;
85839;SDS011;76322;54.686;9.332;2024-02-23T17:56:19;4.57;;;2.17;;
85839;SDS011;76322;54.686;9.332;2024-02-23T17:57:20;4.50;;;2.28;;
85839;SDS011;76322;54.686;9.332;2024-02-23T17:58:22;3.65;;;2.17;;
85839;SDS011;76322;54.686;9.332;2024-02-23T17:59:24;4.07;;;2.22;;
85839;SDS011;76322;54.686;9.332;2024-02-23T18:00:26;5.93;;;2.10;;
85839;SDS011;76322;54.686;9.332;2024-02-23T18:01:27;5.85;;;2.40;;
85839;SDS011;76322;54.686;9.332;2024-02-23T18:02:29;3.85;;;2.03;;
85839;SDS011;76322;54.686;9.332;2024-02-23T18:03:32;5.13;;;2.22;;
85839;SDS011;76322;54.686;9.332;2024-02-23T18:04:33;4.43;;;2.55;;
85839;SDS011;76322;54.686;9.332;2024-02-23T18:05:35;5.30;;;2.38;;
85839;SDS011;76322;54.686;9.332;2024-02-23T18:06:36;6.45;;;2.22;;
85839;SDS011;76322;54.686;9.332;2024-02-23T18:07:38;4.35;;;2.42;;
85839;SDS011;76322;54.686;9.332;2024-02-23T18:08:39;4.63;;;2.20;;
85839;SDS011;76322;54.686;9.332;2024-02-23T18:09:41;2.92;;;2.25;;
85839;SDS011;76322;54.686;9.332;2024-02-23T18:10:42;3.03;;;2.13;;
85839;SDS011;76322;54.686;9.332;2024-02-23T18:11:44;5.63;;;2.40;;
85839;SDS011;76322;54.686;9.332;2024-02-23T18:12:45;3.58;;;2.42;;
85839;SDS011;76322;54.686;9.332;2024-02-23T18:13:47;6.45;;;2.15;;
85839;SDS011;76322;54.686;9.332;2024-02-23T18:14:48;8.68;;;2.25;;
85839;SDS011;76322;54.686;9.332;2024-02-23T18:15:50;4.15;;;2.20;;
85839;SDS011;76322;54.686;9.332;2024-02-23T18:16:51;2.83;;;2.20;;
85839;SDS011;76322;54.686;9.332;2024-02-23T18:17:53;3.65;;;2.22;;
85839;SDS011;76322;54.686;9.332;2024-02-23T18:18:54;4.75;;;2.60;;
85839;SDS011;76322;54.686;9.332;2024-02-23T18:20:59;6.85;;;2.45;;
85839;SDS011;76322;54.686;9.332;2024-02-23T18:22:01;2.83;;;2.40;;
85839;SDS011;76322;54.686;9.332;2024-02-23T18:23:02;3.42;;;2.33;;
85839;SDS011;76322;54.686;9.332;2024-02-23T18:24:05;3.60;;;2.13;;
85839;SDS011;76322;54.686;9.332;2024-02-23T18:25:07;6.20;;;2.60;;
85839;SDS011;76322;54.686;9.332;2024-02-23T18:26:12;4.70;;;2.15;;
85839;SDS011;76322;54.686;9.332;2024-02-23T18:27:18;3.67;;;2.33;;
85839;SDS011;76322;54.686;9.332;2024-02-23T18:28:20;5.53;;;2.75;;
85839;SDS011;76322;54.686;9.332;2024-02-23T18:29:22;4.53;;;2.30;;
85839;SDS011;76322;54.686;9.332;2024-02-23T18:30:23;4.20;;;2.30;;
85839;SDS011;76322;54.686;9.332;2024-02-23T18:31:25;4.05;;;2.30;;
85839;SDS011;76322;54.686;9.332;2024-02-23T18:32:26;2.90;;;2.03;;
85839;SDS011;76322;54.686;9.332;2024-02-23T18:33:28;4.85;;;2.30;;
85839;SDS011;76322;54.686;9.332;2024-02-23T18:34:31;4.45;;;2.10;;
85839;SDS011;76322;54.686;9.332;2024-02-23T18:35:32;3.55;;;2.13;;
85839;SDS011;76322;54.686;9.332;2024-02-23T18:36:34;3.38;;;2.17;;
85839;SDS011;76322;54.686;9.332;2024-02-23T18:37:35;5.00;;;2.10;;
85839;SDS011;76322;54.686;9.332;2024-02-23T18:38:37;2.65;;;1.92;;
85839;SDS011;76322;54.686;9.332;2024-02-23T18:39:39;3.30;;;2.80;;
85839;SDS011;76322;54.686;9.332;2024-02-23T18:40:40;4.03;;;1.92;;
85839;SDS011;76322;54.686;9.332;2024-02-23T18:41:42;4.05;;;1.90;;
85839;SDS011;76322;54.686;9.332;2024-02-23T18:42:44;5.53;;;2.30;;
85839;SDS011;76322;54.686;9.332;2024-02-23T18:43:45;3.95;;;2.13;;
85839;SDS011;76322;54.686;9.332;2024-02-23T18:44:49;6.03;;;2.15;;
85839;SDS011;76322;54.686;9.332;2024-02-23T18:45:50;3.25;;;2.13;;
85839;SDS011;76322;54.686;9.332;2024-02-23T18:46:51;3.08;;;2.15;;
85839;SDS011;76322;54.686;9.332;2024-02-23T18:47:53;3.42;;;2.00;;
85839;SDS011;76322;54.686;9.332;2024-02-23T18:48:54;3.35;;;2.10;;
85839;SDS011;76322;54.686;9.332;2024-02-23T18:49:56;5.03;;;1.98;;
85839;SDS011;76322;54.686;9.332;2024-02-23T18:50:57;3.50;;;2.40;;
85839;SDS011;76322;54.686;9.332;2024-02-23T18:53:02;3.97;;;1.92;;
85839;SDS011;76322;54.686;9.332;2024-02-23T18:54:04;2.88;;;2.10;;
85839;SDS011;76322;54.686;9.332;2024-02-23T18:55:05;2.95;;;1.90;;
85839;SDS011;76322;54.686;9.332;2024-02-23T18:56:10;3.47;;;2.00;;
85839;SDS011;76322;54.686;9.332;2024-02-23T18:57:12;4.20;;;2.20;;
85839;SDS011;76322;54.686;9.332;2024-02-23T18:58:14;2.95;;;2.00;;
85839;SDS011;76322;54.686;9.332;2024-02-23T18:59:15;3.63;;;1.80;;
85839;SDS011;76322;54.686;9.332;2024-02-23T19:00:18;2.97;;;2.13;;
85839;SDS011;76322;54.686;9.332;2024-02-23T19:01:19;2.50;;;1.83;;
85839;SDS011;76322;54.686;9.332;2024-02-23T19:02:21;6.28;;;1.95;;
85839;SDS011;76322;54.686;9.332;2024-02-23T19:03:22;2.85;;;1.83;;
85839;SDS011;76322;54.686;9.332;2024-02-23T19:04:24;2.55;;;1.73;;
85839;SDS011;76322;54.686;9.332;2024-02-23T19:05:26;3.08;;;1.98;;
85839;SDS011;76322;54.686;9.332;2024-02-23T19:06:27;2.40;;;1.70;;
85839;SDS011;76322;54.686;9.332;2024-02-23T19:07:29;1.77;;;1.60;;
85839;SDS011;76322;54.686;9.332;2024-02-23T19:08:30;2.03;;;1.45;;
85839;SDS011;76322;54.686;9.332;2024-02-23T19:09:32;2.10;;;1.60;;
85839;SDS011;76322;54.686;9.332;2024-02-23T19:10:33;2.28;;;1.42;;
85839;SDS011;76322;54.686;9.332;2024-02-23T19:11:35;5.20;;;2.17;;
85839;SDS011;76322;54.686;9.332;2024-02-23T19:12:37;2.47;;;1.55;;
85839;SDS011;76322;54.686;9.332;2024-02-23T19:13:39;4.95;;;1.60;;
85839;SDS011;76322;54.686;9.332;2024-02-23T19:14:40;3.15;;;1.73;;
85839;SDS011;76322;54.686;9.332;2024-02-23T19:15:42;2.60;;;1.60;;
85839;SDS011;76322;54.686;9.332;2024-02-23T19:16:45;2.78;;;2.13;;
85839;SDS011;76322;54.686;9.332;2024-02-23T19:17:46;2.35;;;1.70;;
85839;SDS011;76322;54.686;9.332;2024-02-23T19:18:48;4.35;;;1.58;;
85839;SDS011;76322;54.686;9.332;2024-02-23T19:19:49;4.13;;;1.75;;
85839;SDS011;76322;54.686;9.332;2024-02-23T19:20:51;2.97;;;1.60;;
85839;SDS011;76322;54.686;9.332;2024-02-23T19:21:52;1.70;;;1.35;;
85839;SDS011;76322;54.686;9.332;2024-02-23T19:22:54;3.92;;;1.42;;
85839;SDS011;76322;54.686;9.332;2024-02-23T19:24:00;2.65;;;1.52;;
85839;SDS011;76322;54.686;9.332;2024-02-23T19:25:01;2.55;;;1.35;;
85839;SDS011;76322;54.686;9.332;2024-02-23T19:26:03;3.58;;;1.45;;
85839;SDS011;76322;54.686;9.332;2024-02-23T19:27:04;3.85;;;1.83;;
85839;SDS011;76322;54.686;9.332;2024-02-23T19:28:06;2.63;;;1.60;;
85839;SDS011;76322;54.686;9.332;2024-02-23T19:29:07;2.47;;;1.67;;
85839;SDS011;76322;54.686;9.332;2024-02-23T19:30:10;2.83;;;1.60;;
85839;SDS011;76322;54.686;9.332;2024-02-23T19:31:16;2.92;;;1.42;;
85839;SDS011;76322;54.686;9.332;2024-02-23T19:32:20;4.95;;;1.63;;
85839;SDS011;76322;54.686;9.332;2024-02-23T19:33:22;2.30;;;1.60;;
85839;SDS011;76322;54.686;9.332;2024-02-23T19:34:24;2.28;;;1.75;;
85839;SDS011;76322;54.686;9.332;2024-02-23T19:35:25;2.13;;;1.73;;
85839;SDS011;76322;54.686;9.332;2024-02-23T19:36:27;3.15;;;1.60;;
85839;SDS011;76322;54.686;9.332;2024-02-23T19:37:29;3.05;;;1.75;;
85839;SDS011;76322;54.686;9.332;2024-02-23T19:38:30;2.33;;;1.70;;
85839;SDS011;76322;54.686;9.332;2024-02-23T19:39:32;3.70;;;1.60;;
85839;SDS011;76322;54.686;9.332;2024-02-23T19:40:34;2.90;;;2.00;;
85839;SDS011;76322;54.686;9.332;2024-02-23T19:41:45;2.40;;;1.80;;
85839;SDS011;76322;54.686;9.332;2024-02-23T19:42:48;2.15;;;1.60;;
85839;SDS011;76322;54.686;9.332;2024-02-23T19:43:50;2.53;;;1.90;;
85839;SDS011;76322;54.686;9.332;2024-02-23T19:44:51;2.75;;;1.65;;
85839;SDS011;76322;54.686;9.332;2024-02-23T19:45:53;2.53;;;1.70;;
85839;SDS011;76322;54.686;9.332;2024-02-23T19:47:08;4.57;;;2.10;;
85839;SDS011;76322;54.686;9.332;2024-02-23T19:48:09;3.17;;;1.75;;
85839;SDS011;76322;54.686;9.332;2024-02-23T19:49:11;2.90;;;1.80;;
85839;SDS011;76322;54.686;9.332;2024-02-23T19:50:13;1.85;;;1.55;;
85839;SDS011;76322;54.686;9.332;2024-02-23T19:51:16;3.97;;;1.77;;
85839;SDS011;76322;54.686;9.332;2024-02-23T19:52:18;1.92;;;1.55;;
85839;SDS011;76322;54.686;9.332;2024-02-23T19:53:19;2.45;;;1.75;;
85839;SDS011;76322;54.686;9.332;2024-02-23T19:54:21;2.38;;;1.90;;
85839;SDS011;76322;54.686;9.332;2024-02-23T19:55:22;3.35;;;1.95;;
85839;SDS011;76322;54.686;9.332;2024-02-23T19:56:23;4.38;;;1.73;;
85839;SDS011;76322;54.686;9.332;2024-02-23T19:57:25;2.20;;;1.70;;
85839;SDS011;76322;54.686;9.332;2024-02-23T19:58:28;4.13;;;1.85;;
85839;SDS011;76322;54.686;9.332;2024-02-23T19:59:29;2.50;;;1.92;;
85839;SDS011;76322;54.686;9.332;2024-02-23T20:00:33;1.90;;;1.65;;
85839;SDS011;76322;54.686;9.332;2024-02-23T20:01:35;3.72;;;1.90;;
85839;SDS011;76322;54.686;9.332;2024-02-23T20:02:36;3.30;;;2.00;;
85839;SDS011;76322;54.686;9.332;2024-02-23T20:03:38;3.53;;;1.90;;
85839;SDS011;76322;54.686;9.332;2024-02-23T20:04:40;3.35;;;1.95;;
85839;SDS011;76322;54.686;9.332;2024-02-23T20:05:45;3.40;;;2.03;;
85839;SDS011;76322;54.686;9.332;2024-02-23T20:06:46;3.83;;;2.13;;
85839;SDS011;76322;54.686;9.332;2024-02-23T20:07:48;6.70;;;3.33;;
85839;SDS011;76322;54.686;9.332;2024-02-23T20:08:49;2.55;;;1.88;;
85839;SDS011;76322;54.686;9.332;2024-02-23T20:09:52;2.60;;;1.85;;
85839;SDS011;76322;54.686;9.332;2024-02-23T20:10:53;5.20;;;2.22;;
85839;SDS011;76322;54.686;9.332;2024-02-23T20:11:55;4.15;;;2.20;;
85839;SDS011;76322;54.686;9.332;2024-02-23T20:12:57;3.13;;;2.05;;
85839;SDS011;76322;54.686;9.332;2024-02-23T20:13:58;5.20;;;2.13;;
85839;SDS011;76322;54.686;9.332;2024-02-23T20:15:00;3.92;;;2.28;;
85839;SDS011;76322;54.686;9.332;2024-02-23T20:16:04;4.40;;;2.50;;
85839;SDS011;76322;54.686;9.332;2024-02-23T20:17:05;2.85;;;2.22;;
85839;SDS011;76322;54.686;9.332;2024-02-23T20:18:07;3.22;;;2.22;;
85839;SDS011;76322;54.686;9.332;2024-02-23T20:19:09;4.35;;;2.30;;
85839;SDS011;76322;54.686;9.332;2024-02-23T20:20:16;6.82;;;2.42;;
85839;SDS011;76322;54.686;9.332;2024-02-23T20:21:17;3.60;;;1.90;;
85839;SDS011;76322;54.686;9.332;2024-02-23T20:22:19;3.28;;;2.20;;
85839;SDS011;76322;54.686;9.332;2024-02-23T20:23:22;4.53;;;2.28;;
85839;SDS011;76322;54.686;9.332;2024-02-23T20:24:23;3.28;;;2.20;;
85839;SDS011;76322;54.686;9.332;2024-02-23T20:26:28;3.63;;;2.17;;
85839;SDS011;76322;54.686;9.332;2024-02-23T20:27:30;6.53;;;2.20;;
85839;SDS011;76322;54.686;9.332;2024-02-23T20:28:31;5.30;;;2.40;;
85839;SDS011;76322;54.686;9.332;2024-02-23T20:29:33;6.05;;;2.20;;
85839;SDS011;76322;54.686;9.332;2024-02-23T20:30:37;3.53;;;2.08;;
85839;SDS011;76322;54.686;9.332;2024-02-23T20:31:39;3.20;;;2.20;;
85839;SDS011;76322;54.686;9.332;2024-02-23T20:33:43;2.70;;;2.10;;
85839;SDS011;76322;54.686;9.332;2024-02-23T20:34:46;4.07;;;2.67;;
85839;SDS011;76322;54.686;9.332;2024-02-23T20:35:47;3.28;;;2.05;;
85839;SDS011;76322;54.686;9.332;2024-02-23T20:36:49;4.07;;;2.20;;
85839;SDS011;76322;54.686;9.332;2024-02-23T20:37:50;4.20;;;2.10;;
85839;SDS011;76322;54.686;9.332;2024-02-23T20:38:52;5.57;;;2.42;;
85839;SDS011;76322;54.686;9.332;2024-02-23T20:39:53;6.50;;;2.42;;
85839;SDS011;76322;54.686;9.332;2024-02-23T20:40:55;3.63;;;2.28;;
85839;SDS011;76322;54.686;9.332;2024-02-23T20:41:56;4.30;;;2.25;;
85839;SDS011;76322;54.686;9.332;2024-02-23T20:42:58;5.53;;;2.33;;
85839;SDS011;76322;54.686;9.332;2024-02-23T20:43:59;4.55;;;2.10;;
85839;SDS011;76322;54.686;9.332;2024-02-23T20:45:01;6.82;;;2.08;;
85839;SDS011;76322;54.686;9.332;2024-02-23T20:46:02;4.68;;;2.20;;
85839;SDS011;76322;54.686;9.332;2024-02-23T20:47:04;5.07;;;2.10;;
85839;SDS011;76322;54.686;9.332;2024-02-23T20:48:06;3.42;;;2.10;;
85839;SDS011;76322;54.686;9.332;2024-02-23T20:49:09;3.28;;;1.92;;
85839;SDS011;76322;54.686;9.332;2024-02-23T20:50:10;2.65;;;1.80;;
85839;SDS011;76322;54.686;9.332;2024-02-23T20:51:12;3.42;;;1.95;;
85839;SDS011;76322;54.686;9.332;2024-02-23T20:52:14;5.72;;;2.33;;
85839;SDS011;76322;54.686;9.332;2024-02-23T20:53:18;2.75;;;1.80;;
85839;SDS011;76322;54.686;9.332;2024-02-23T20:54:19;3.85;;;1.90;;
85839;SDS011;76322;54.686;9.332;2024-02-23T20:55:21;5.70;;;2.40;;
85839;SDS011;76322;54.686;9.332;2024-02-23T20:56:23;2.90;;;1.88;;
85839;SDS011;76322;54.686;9.332;2024-02-23T20:57:24;2.70;;;1.70;;
85839;SDS011;76322;54.686;9.332;2024-02-23T20:58:26;3.97;;;2.38;;
85839;SDS011;76322;54.686;9.332;2024-02-23T20:59:27;3.55;;;2.00;;
85839;SDS011;76322;54.686;9.332;2024-02-23T21:00:29;2.65;;;1.98;;
85839;SDS011;76322;54.686;9.332;2024-02-23T21:01:30;2.63;;;1.88;;
85839;SDS011;76322;54.686;9.332;2024-02-23T21:02:31;2.80;;;1.92;;
85839;SDS011;76322;54.686;9.332;2024-02-23T21:03:33;5.22;;;2.38;;
85839;SDS011;76322;54.686;9.332;2024-02-23T21:04:35;4.30;;;1.83;;
85839;SDS011;76322;54.686;9.332;2024-02-23T21:05:39;3.50;;;2.10;;
85839;SDS011;76322;54.686;9.332;2024-02-23T21:06:40;3.65;;;1.90;;
85839;SDS011;76322;54.686;9.332;2024-02-23T21:07:42;3.65;;;2.05;;
85839;SDS011;76322;54.686;9.332;2024-02-23T21:08:46;5.00;;;2.15;;
85839;SDS011;76322;54.686;9.332;2024-02-23T21:09:47;2.80;;;1.70;;
85839;SDS011;76322;54.686;9.332;2024-02-23T21:10:50;3.50;;;2.03;;
85839;SDS011;76322;54.686;9.332;2024-02-23T21:11:52;3.90;;;1.90;;
85839;SDS011;76322;54.686;9.332;2024-02-23T21:12:53;2.78;;;1.98;;
85839;SDS011;76322;54.686;9.332;2024-02-23T21:13:55;2.83;;;1.98;;
85839;SDS011;76322;54.686;9.332;2024-02-23T21:14:56;3.63;;;2.20;;
85839;SDS011;76322;54.686;9.332;2024-02-23T21:15:58;3.75;;;2.08;;
85839;SDS011;76322;54.686;9.332;2024-02-23T21:16:59;3.38;;;1.90;;
85839;SDS011;76322;54.686;9.332;2024-02-23T21:18:01;3.08;;;1.90;;
85839;SDS011;76322;54.686;9.332;2024-02-23T21:19:02;5.82;;;1.77;;
85839;SDS011;76322;54.686;9.332;2024-02-23T21:20:05;3.50;;;2.03;;
85839;SDS011;76322;54.686;9.332;2024-02-23T21:21:07;4.70;;;2.10;;
85839;SDS011;76322;54.686;9.332;2024-02-23T21:22:09;2.53;;;1.80;;
85839;SDS011;76322;54.686;9.332;2024-02-23T21:23:11;3.42;;;2.03;;
85839;SDS011;76322;54.686;9.332;2024-02-23T21:24:13;4.13;;;2.00;;
85839;SDS011;76322;54.686;9.332;2024-02-23T21:25:16;4.50;;;1.95;;
85839;SDS011;76322;54.686;9.332;2024-02-23T21:26:18;2.63;;;1.92;;
85839;SDS011;76322;54.686;9.332;2024-02-23T21:27:20;3.40;;;1.90;;
85839;SDS011;76322;54.686;9.332;2024-02-23T21:28:21;3.38;;;2.22;;
85839;SDS011;76322;54.686;9.332;2024-02-23T21:29:22;3.42;;;1.77;;
85839;SDS011;76322;54.686;9.332;2024-02-23T21:30:24;3.08;;;1.83;;
85839;SDS011;76322;54.686;9.332;2024-02-23T21:31:26;5.07;;;2.50;;
85839;SDS011;76322;54.686;9.332;2024-02-23T21:32:27;4.03;;;2.05;;
85839;SDS011;76322;54.686;9.332;2024-02-23T21:33:31;3.75;;;2.10;;
85839;SDS011;76322;54.686;9.332;2024-02-23T21:34:32;3.83;;;2.00;;
85839;SDS011;76322;54.686;9.332;2024-02-23T21:35:34;2.75;;;1.83;;
85839;SDS011;76322;54.686;9.332;2024-02-23T21:36:36;2.42;;;1.67;;
85839;SDS011;76322;54.686;9.332;2024-02-23T21:37:38;3.80;;;1.90;;
85839;SDS011;76322;54.686;9.332;2024-02-23T21:38:39;2.72;;;2.08;;
85839;SDS011;76322;54.686;9.332;2024-02-23T21:39:42;4.25;;;2.10;;
85839;SDS011;76322;54.686;9.332;2024-02-23T21:40:43;4.25;;;1.65;;
85839;SDS011;76322;54.686;9.332;2024-02-23T21:41:44;5.07;;;1.67;;
85839;SDS011;76322;54.686;9.332;2024-02-23T21:42:46;3.92;;;2.00;;
85839;SDS011;76322;54.686;9.332;2024-02-23T21:43:48;4.32;;;1.85;;
85839;SDS011;76322;54.686;9.332;2024-02-23T21:44:49;4.43;;;2.28;;
85839;SDS011;76322;54.686;9.332;2024-02-23T21:45:51;2.75;;;1.70;;
85839;SDS011;76322;54.686;9.332;2024-02-23T21:46:52;3.92;;;1.75;;
85839;SDS011;76322;54.686;9.332;2024-02-23T21:47:53;4.60;;;2.05;;
85839;SDS011;76322;54.686;9.332;2024-02-23T21:48:55;4.88;;;2.22;;
85839;SDS011;76322;54.686;9.332;2024-02-23T21:49:58;5.80;;;2.03;;
85839;SDS011;76322;54.686;9.332;2024-02-23T21:51:00;2.97;;;1.90;;
85839;SDS011;76322;54.686;9.332;2024-02-23T21:52:01;4.68;;;1.98;;
85839;SDS011;76322;54.686;9.332;2024-02-23T21:53:06;3.78;;;2.10;;
85839;SDS011;76322;54.686;9.332;2024-02-23T21:54:07;3.35;;;1.85;;
